Cortez, CO

2:37 PM MDT on July 29, 2014 (GMT -0600)
Kelly Place B&B, McElmo Canyon (KCOCORTE2) Elev 5522 ft | 37.34 °N, 108.79 °W | Change Station

Current weather conditions updated 7 minutes ago

Clear
Clear
89.6 °F
Feels Like 88 °F
N
6.3
Wind Variable Wind from NNW
Gusts 8.7 mph

Today is forecast to be Cooler than yesterday.

Today
High -- | Low -- °F
--% Chance of Precip.
Yesterday
High -- | Low -- °F
Precip. -- in
6:16 AM 8:25 PM
Waxing Crescent, 7% visible
Pressure 30.03 in
Visibility 10.0 miles
Clouds Clear
Heat Index 88 °F
Dew Point 56 °F
Humidity 33%
Rainfall 0.02 in
Snow Depth Not available.
UV 13 out of 12
Pollen 2.80 out of 12
Air Quality Not available.
Flu Activity Not available.
METAR KCEZ 291953Z AUTO 22009KT 10SM CLR 27/13 A3026 RMK AO2 LTG DSNT N SLP167 T02670133

More Conditions Fewer Conditions

Pressure 30.03 in
Visibility 10.0 miles
Clouds Clear
Heat Index 88 °F
Dew Point 56 °F
Humidity 33%
Rainfall 0.02 in
Snow Depth Not available.
UV 13 out of 12
Pollen 2.80 out of 12
Air Quality Not available.
Flu Activity Not available.
METAR KCEZ 291953Z AUTO 22009KT 10SM CLR 27/13 A3026 RMK AO2 LTG DSNT N SLP167 T02670133

More Conditions Fewer Conditions

10-Day Weather Forecast

Almanac

Astronomy

Jul. 29, 2014 Rise Set
Actual Time 6:16 AM MDT 8:25 PM MDT
Civil Twilight 5:47 AM MDT 8:54 PM MDT
Nautical Twilight 5:12 AM MDT 9:29 PM MDT
Astronomical Twilight 4:33 AM MDT 10:08 PM MDT
Moon 8:51 AM MDT 9:44 PM MDT
Length of Visible Light 15h 06m
Length of Day
14h 08m
Tomorrow will be 1m 43s shorter.
Waxing Crescent, 7% of the Moon is Illuminated
Today
Waxing Crescent
Aug 3
First Quarter
Aug 10
Full
Aug 17
Last Quarter
Aug 25
New

Today's Extremes

State Highs State Lows

Community

WunderPhotos

Upload Photos

1,738,851 photos uploaded!

Nearby

Snow Depth

Station Depth Elevation
Columbus Basin 0 in 10785 ft
Scotch Creek 0 in 9100 ft
Lone Cone 0 in 9600 ft
El Diente Peak 0 in 10200 ft
Lizard Head Pass 0 in 10200 ft

Earthquake Activity

City Distance Mag. Time & Date
No recent earthquake activity has been reported nearby.
Minimum magnitude displayed is 2.5.

Coastal Water Temperatures

Place Temperature
No Stations Reporting

Nearby Weather Stations

Station Location Temp. Heat Index Dew Point Humidity Wind Precip. Elev Updated Type
Kelly Place B&B, McElmo Canyon, Cortez, CO 89.6 °F 88 °F 56 °F 33% NNW  at  6.3 mph 0.00 in / hr 5522 ft 2:29 PM MDT Normal
RAWS MOCKINGBIRD CO, Yellow Jacket, CO 78 °F 79 °F 51 °F 39% SW  at  6 mph 0.00 in / hr 6419 ft 1:44 PM MDT MADIS
Cahone (2.5 Miles NNE), Cahone, CO 74.2 °F 77 °F 50 °F 43% North  at  3.0 mph 0.00 in / hr 6870 ft 2:37 PM MDT Rapid Fire
RAWS MOREFIELD CO, Mesa Verde, CO 72 °F 77 °F 53 °F 51% WNW  at  5 mph 0.00 in / hr 7819 ft 1:40 PM MDT MADIS
RAWS SALTER CO, Cahone, CO 69 °F - 52 °F 55% SW  at  5 mph 0.00 in / hr 8201 ft 1:24 PM MDT MADIS

Show More Stations Show Fewer Stations